Flight Track Log - Related Links

Times and Time Zones

All times are in EST time to prevent confusion due to time zone crossing. See the N354LQ flight status page for this flight to view local times or setup timezone preferences in your user account.

Time Position Orientation Groundspeed Altitude Reporting Facility
EST Latitude Longitude Course Direction KTS MPH feet Rate Location/Type
Thu 09:46:56 PM 42.9333 -87.9000 230° Southwest 194 223 1,500  Level KMKE
Thu 09:48:19 PM 42.8869 -87.9761 230° Southwest 243 280 6,900 4,179 Climbing Chicago Center
Thu 09:49:21 PM 42.8994 -88.0569 282° West 221 254 11,600 3,073 Climbing Chicago Center
Thu 09:50:22 PM 42.9169 -88.1422 286° West 240 276 13,200 1,512 Climbing Chicago Center
Thu 09:51:24 PM 42.8944 -88.2300 251° West 242 278 14,700 1,415 Climbing Chicago Center
Thu 09:52:25 PM 42.8678 -88.3225 249° West 257 296 16,100 1,918 Climbing Chicago Center
Thu 09:53:26 PM 42.8467 -88.4347 256° West 298 343 18,600 3,122 Climbing Chicago Center
Thu 09:54:28 PM 42.8311 -88.5792 262° West 317 365 22,500 3,561 Climbing Chicago Center
Thu 09:55:29 PM 42.8222 -88.6953 264° West 310 357 25,900 2,459 Climbing Chicago Center
Thu 09:56:30 PM 42.8169 -88.8114 266° West 307 353 27,500 1,415 Climbing Chicago Center
Thu 09:57:32 PM 42.8075 -88.9439 264° West 343 395 28,800 1,512 Climbing Chicago Center
Thu 09:58:33 PM 42.7992 -89.0767 265° West 352 405 30,600 1,524 Climbing Chicago Center
Thu 09:59:38 PM 42.7939 -89.2058 267° West 343 395 32,000 1,465 Climbing Chicago Center
Thu 10:00:40 PM 42.7881 -89.3342 266° West 339 390 33,700 1,659 Climbing Chicago Center
Thu 10:01:41 PM 42.7864 -89.4797 269° West 322 371 35,400 1,230 Climbing Chicago Center
Thu 10:02:42 PM 42.7739 -89.5964 262° West 323 372 36,200 537 Climbing Chicago Center
Thu 10:03:44 PM 42.7597 -89.7153 261° West 319 367 36,500 293 Climbing Chicago Center
Thu 10:04:45 PM 42.7444 -89.8383 260° West 327 376 36,800 390 Climbing Chicago Center
Thu 10:05:47 PM 42.7278 -89.9692 260° West 333 383 37,300 537 Climbing Chicago Center
Thu 10:06:48 PM 42.7158 -90.0958 263° West 338 389 37,900 443 Climbing Chicago Center
Thu 10:07:49 PM 42.7019 -90.2158 261° West 326 375 38,200 49 Climbing Chicago Center
Thu 10:08:51 PM 42.6850 -90.3397 260° West 332 382 38,000 -98 Descending Chicago Center
Thu 10:09:52 PM 42.6708 -90.4661 261° West 337 388 38,000  Level Chicago Center
Thu 10:10:54 PM 42.6536 -90.5914 259° West 340 391 38,000  Level Chicago Center
Thu 10:11:55 PM 42.6383 -90.7181 261° West 340 391 38,000  Level Chicago Center
Thu 10:12:56 PM 42.6181 -90.8689 260° West 339 390 38,000  Level Chicago Center
Thu 10:13:58 PM 42.6006 -90.9942 259° West 338 389 38,000  Level Chicago Center
Thu 10:14:59 PM 42.5833 -91.1200 260° West 340 391 38,000  Level Chicago Center
Thu 10:16:00 PM 42.5656 -91.2453 259° West 338 389 38,000  Level Chicago Center
Thu 10:17:02 PM 42.5497 -91.3719 260° West 340 391 38,000  Level Chicago Center
Thu 10:18:03 PM 42.5325 -91.4981 260° West 340 391 38,000  Level Chicago Center
Thu 10:19:05 PM 42.5133 -91.6256 259° West 342 394 38,000  Level Chicago Center
Thu 10:20:06 PM 42.4958 -91.7528 259° West 342 394 38,000  Level Chicago Center
Thu 10:21:07 PM 42.4783 -91.8794 259° West 342 394 38,000  Level Chicago Center
Thu 10:22:09 PM 42.4600 -92.0064 259° West 343 395 38,000  Level Chicago Center
Thu 10:23:10 PM 42.4411 -92.1333 259° West 344 396 38,000  Level Chicago Center
Thu 10:24:11 PM 42.4197 -92.2875 259° West 348 400 38,000  Level Chicago Center
Thu 10:25:13 PM 42.4011 -92.4133 259° West 344 396 38,000  Level Chicago Center
Thu 10:26:14 PM 42.3831 -92.5406 259° West 345 397 38,000  Level Chicago Center
Thu 10:27:15 PM 42.3639 -92.6686 259° West 347 399 38,000  Level Chicago Center
Thu 10:28:17 PM 42.3453 -92.7953 259° West 346 398 38,000  Level Chicago Center
Thu 10:29:19 PM 42.3253 -92.9233 258° West 349 402 38,000  Level Chicago Center
Thu 10:30:19 PM 42.3069 -93.0486 259° West 343 395 38,000  Level Chicago Center
Thu 10:31:08 PM 42.2925 -93.1508 259° West 347 399 38,000  Level Minneapolis Center
Thu 10:32:09 PM 42.2736 -93.2775 259° West 347 399 38,000  Level Minneapolis Center
Thu 10:33:10 PM 42.2489 -93.4278 258° West 344 396 38,000  Level Minneapolis Center
Thu 10:34:12 PM 42.2303 -93.5561 259° West 349 402 38,000  Level Minneapolis Center
Thu 10:35:13 PM 42.2103 -93.6811 258° West 345 397 38,000  Level Minneapolis Center
Thu 10:36:14 PM 42.1889 -93.8089 257° West 350 403 38,000  Level Minneapolis Center
Thu 10:37:15 PM 42.1692 -93.9411 259° West 345 397 38,000  Level Minneapolis Center
Thu 10:38:17 PM 42.1483 -94.0678 258° West 346 398 38,000  Level Minneapolis Center
Thu 10:39:18 PM 42.1275 -94.1956 258° West 349 402 38,000  Level Minneapolis Center
Thu 10:40:19 PM 42.1075 -94.3222 258° West 346 398 38,000  Level Minneapolis Center
Thu 10:41:20 PM 42.0875 -94.4497 258° West 349 402 38,000  Level Minneapolis Center
Thu 10:42:21 PM 42.0658 -94.5767 257° West 348 400 38,000  Level Minneapolis Center
Thu 10:43:22 PM 42.0450 -94.7031 258° West 347 399 38,000  Level Minneapolis Center
Thu 10:44:23 PM 42.0239 -94.8311 258° West 349 402 38,000  Level Minneapolis Center
Thu 10:45:25 PM 41.9981 -94.9833 257° West 349 402 38,000  Level Minneapolis Center
Thu 10:46:26 PM 41.9769 -95.1097 257° West 348 400 38,000  Level Minneapolis Center
Thu 10:47:27 PM 41.9553 -95.2356 257° West 347 399 38,000  Level Minneapolis Center
Thu 10:48:28 PM 41.9336 -95.3622 257° West 348 400 38,000  Level Minneapolis Center
Thu 10:49:29 PM 41.9122 -95.4875 257° West 347 399 38,000  Level Minneapolis Center
Thu 10:50:30 PM 41.8900 -95.6122 257° West 346 398 38,000  Level Minneapolis Center
Thu 10:51:31 PM 41.8672 -95.7381 256° West 348 400 38,000  Level Minneapolis Center
Thu 10:52:32 PM 41.8453 -95.8622 257° West 346 398 38,000  Level Minneapolis Center
Thu 10:53:33 PM 41.8231 -95.9864 257° West 345 397 38,000  Level Minneapolis Center
Thu 10:54:34 PM 41.8003 -96.1114 256° West 346 398 38,000  Level Minneapolis Center
Thu 10:55:35 PM 41.7733 -96.2603 256° West 345 397 38,000  Level Minneapolis Center
Thu 10:56:36 PM 41.7508 -96.3836 256° West 344 396 38,000  Level Minneapolis Center
Thu 10:57:37 PM 41.7275 -96.5086 256° West 346 398 38,000  Level Minneapolis Center
Thu 10:58:38 PM 41.7056 -96.6319 257° West 345 397 38,000  Level Minneapolis Center
Thu 10:59:40 PM 41.6819 -96.7558 256° West 345 397 38,000  Level Minneapolis Center
Thu 11:00:41 PM 41.6597 -96.8806 257° West 347 399 38,000  Level Minneapolis Center
Thu 11:01:42 PM 41.6361 -97.0047 256° West 347 399 38,000  Level Minneapolis Center
Thu 11:02:43 PM 41.6117 -97.1306 255° West 348 400 38,000  Level Minneapolis Center
Thu 11:03:44 PM 41.5878 -97.2558 256° West 349 402 38,000  Level Minneapolis Center
Thu 11:04:45 PM 41.5642 -97.3808 256° West 348 400 38,000  Level Minneapolis Center
Thu 11:05:46 PM 41.5344 -97.5317 255° West 350 403 38,000  Level Minneapolis Center
Thu 11:06:47 PM 41.5100 -97.6569 255° West 350 403 38,000  Level Minneapolis Center
Thu 11:07:48 PM 41.4853 -97.7836 255° West 351 404 38,000  Level Minneapolis Center
Thu 11:08:49 PM 41.4608 -97.9106 256° West 353 406 38,000  Level Minneapolis Center
Thu 11:09:51 PM 41.4342 -98.0356 254° West 353 406 38,000  Level Minneapolis Center
Thu 11:10:52 PM 41.4117 -98.1542 256° West 355 409 38,000  Level Minneapolis Center
Thu 11:11:53 PM 41.3856 -98.2808 255° West 355 409 38,000  Level Minneapolis Center
Thu 11:12:54 PM 41.3561 -98.4308 255° West 352 405 38,000  Level Minneapolis Center
Thu 11:13:55 PM 41.3344 -98.5392 255° West 349 402 38,000  Level Minneapolis Center
Thu 11:14:56 PM 41.3083 -98.6625 254° West 348 400 38,000  Level Minneapolis Center
Thu 11:15:57 PM 41.2828 -98.7856 255° West 346 398 38,000  Level Minneapolis Center
Thu 11:16:58 PM 41.2572 -98.9103 255° West 346 398 38,000  Level Minneapolis Center
Thu 11:17:59 PM 41.2267 -99.0567 255° West 344 396 38,000  Level Minneapolis Center
Thu 11:18:58 PM 41.2042 -99.1631 254° West 346 398 38,000  Level Denver Center
Thu 11:19:59 PM 41.1789 -99.2867 255° West 346 398 38,000  Level Denver Center
Thu 11:21:01 PM 41.1525 -99.4094 254° West 347 399 38,000  Level Denver Center
Thu 11:22:02 PM 41.1242 -99.5453 255° West 350 403 38,000  Level Denver Center
Thu 11:23:03 PM 41.1025 -99.6433 254° West 349 402 38,000  Level Denver Center
Thu 11:24:05 PM 41.0672 -99.8072 254° West 351 404 38,000  Level Denver Center
Thu 11:25:06 PM 41.0422 -99.9211 254° West 352 405 38,000  Level Denver Center
Thu 11:26:07 PM 41.0114 -100.0603 254° West 352 405 38,000  Level Denver Center
Thu 11:27:21 PM 40.9858 -100.1786 254° West 351 404 38,000  Level Denver Center
Thu 11:28:22 PM 40.9506 -100.3381 254° West 353 406 38,000  Level Denver Center
Thu 11:29:24 PM 40.9244 -100.4561 254° West 351 404 38,000  Level Denver Center
Thu 11:30:25 PM 40.8933 -100.5958 254° West 355 409 38,000  Level Denver Center
Thu 11:31:26 PM 40.8686 -100.7025 253° West 353 406 38,000  Level Denver Center
Thu 11:32:28 PM 40.8369 -100.8422 253° West 349 402 38,000  Level Denver Center
Thu 11:33:29 PM 40.8106 -100.9614 254° West 353 406 38,000  Level Denver Center
Thu 11:34:30 PM 40.7833 -101.1017 256° West 354 407 38,000  Level Denver Center
Thu 11:35:32 PM 40.7597 -101.2219 256° West 354 407 38,000  Level Denver Center
Thu 11:36:33 PM 40.7353 -101.3408 255° West 353 406 38,000  Level Denver Center
Thu 11:37:34 PM 40.7081 -101.4811 256° West 354 407 38,000  Level Denver Center
Thu 11:38:35 PM 40.6831 -101.6011 255° West 354 407 38,000  Level Denver Center
Thu 11:39:37 PM 40.6550 -101.7411 255° West 355 409 38,000  Level Denver Center
Thu 11:40:38 PM 40.6303 -101.8600 255° West 353 406 38,000  Level Denver Center
Thu 11:41:39 PM 40.6053 -101.9792 255° West 353 406 38,000  Level Denver Center
Thu 11:42:40 PM 40.5764 -102.1172 255° West 352 405 38,000  Level Denver Center
Thu 11:43:41 PM 40.5511 -102.2361 254° West 353 406 38,000  Level Denver Center
Thu 11:44:43 PM 40.5264 -102.3547 255° West 353 406 38,000  Level Denver Center
Thu 11:45:44 PM 40.4981 -102.4925 255° West 352 405 38,000  Level Denver Center
Thu 11:46:45 PM 40.4722 -102.6111 254° West 353 406 38,000 -295 Level Denver Center
Thu 11:47:46 PM 40.4472 -102.7297 255° West 357 411 37,400 -1,377 Descending Denver Center
Thu 11:48:47 PM 40.4131 -102.8872 254° West 375 432 35,200 -2,244 Descending Denver Center
Thu 11:49:49 PM 40.3836 -103.0192 254° West 377 434 32,800 -2,390 Descending Denver Center
Thu 11:50:50 PM 40.3558 -103.1472 254° West 369 425 30,300 -2,262 Descending Denver Center
Thu 11:51:51 PM 40.3289 -103.2739 254° West 361 415 28,200 -2,066 Descending Denver Center
Thu 11:52:52 PM 40.3011 -103.3953 253° West 351 404 26,100 -1,959 Descending Denver Center
Thu 11:54:18 PM 40.2686 -103.5392 254° West 344 396 23,400 -2,204 Descending Denver Center
Thu 11:55:19 PM 40.2383 -103.6806 254° West 338 389 20,700 -2,164 Descending Denver Center
Thu 11:56:20 PM 40.2086 -103.8133 254° West 337 388 19,000 -1,033 Descending Denver Center
Thu 11:57:21 PM 40.1642 -103.9228 242° Southwest 360 414 18,600 -878 Descending Denver Center
Thu 11:58:23 PM 40.0894 -104.0236 226° Southwest 387 445 17,200 -1,220 Descending Denver Center
Thu 11:59:24 PM 40.0481 -104.1403 245° Southwest 359 413 16,100 -1,230 Descending Denver Center
Fri 12:00:25 AM 39.9936 -104.2578 239° Southwest 352 405 14,700 -1,033 Descending Denver Center
Fri 12:01:26 AM 39.9447 -104.3664 240° Southwest 348 400 14,000 -400 Descending Denver Center
Fri 12:02:25 AM 39.9000 -104.4667 240° Southwest 309 356 13,900 -885 Descending Denver TRACON
Fri 12:03:28 AM 39.8597 -104.5539 239° Southwest 286 329 12,200 -1,392 Descending Denver Center
Fri 12:04:30 AM 39.8144 -104.6433 237° Southwest 269 310 11,000 -1,073 Descending Denver Center
Fri 12:05:31 AM 39.7714 -104.7150 232° Southwest 252 290 10,000 -1,230 Descending Denver Center
Fri 12:06:32 AM 39.7189 -104.7875 227° Southwest 271 312 8,500 -1,328 Descending Denver Center
Fri 12:07:33 AM 39.6756 -104.8528 229° Southwest 233 268 7,300 -984 Descending Denver Center
Fri 12:08:34 AM 39.6308 -104.8531 180° South 164 189 6,500 -639 Descending Denver Center
Fri 12:09:35 AM 39.5936 -104.8522 179° South 138 159 6,000 -492 Descending Denver Center
Fri 12:11:00 AM 39.5667 -104.8333 237° Southwest  Level FlightAware Approximate
Fri 12:18:00 AM 39.5701 -104.8493 237° Southwest  Level Estimated

Login

Don't have an account? Register now (free) for customized features, flight alerts, and more!